x

Yucatan Basin - 120 Nm Ese Of Cozumel, Mx (42056) Wave Buoy

5:50 - Sun 26th Jun 2016 All times are CDT. -5 hours from GMT.

  • Sig Wave height 3.6ft
  • Swell Direction
  • Peak Period 5s
  • Average Period 5s
  • Wind
    11mph, 16mph gusts
  • Sea Temp 84°f
  • Aire Temp 83°f
  • Sea Pressure 1014.9mb
  •  Yucatan Basin - 120 Nm Ese Of Cozumel, Mx
  •  Yucatan Basin - 120 Nm Ese Of Cozumel, Mx

More Historic Weather Station data

Upgrade to MSW Pro to gain access to the past 30 days of data for over 8000 Wavebouys and Weather Stations around the globe.

Join Pro

Comparision Forecast

View Surf forecast
   
dom 06/26 5:50 3.5ft 5s 5s 11 16 mph 1014.9mb 84f 83f
5:40 3.5ft  -  5s 13 16 mph 1014.9mb 84f 83f
5:30  -   -   -  13 18 mph 1014.9mb 84f 83f
5:20  -   -   -  13 16 mph 1014.9mb 84f 83f
5:10  -   -   -  13 18 mph 1014.9mb 84f 83f
5:00  -   -   -  13 16 mph 1015mb 84f 84f
4:50 3.5ft 9s 5s 13 16 mph 1015mb 84f 84f
4:40  -   -   -  13 16 mph 1015mb 84f 83f
4:30  -   -   -  13 16 mph 1015mb 84f 83f
4:20  -   -   -  13 16 mph 1014.9mb 84f 84f
4:10  -   -   -  11 16 mph 1014.9mb 84f 83f
4:00  -   -   -  11 16 mph 1014.9mb 84f 83f
3:50 3.5ft 8s 5s 11 13 mph 1015mb 84f 83f
3:40  -   -   -  11 13 mph 1015mb 84f 84f
3:30  -   -   -  11 16 mph 1015mb 84f 84f
3:20  -   -   -  11 13 mph 1015mb 84f 84f
3:10  -   -   -  11 16 mph 1015mb 84f 84f
3:00  -   -   -  11 13 mph 1015mb 84f 84f
2:50 3.5ft 8s 5s 13 16 mph 1015mb 84f 84f
2:40  -   -   -  13 16 mph 1015mb 84f 84f
2:30  -   -   -  13 16 mph 1015.1mb 84f 84f
2:20  -   -   -  13 16 mph 1015mb 84f 84f
2:10  -   -   -  13 18 mph 1015.1mb 84f 84f
2:00  -   -   -  16 18 mph 1015.1mb 84f 84f
1:50 3.5ft 6s 5s 13 18 mph 1015.1mb 84f 84f
1:40  -   -   -  13 18 mph 1015.1mb - 84f
1:30  -   -   -  13 18 mph 1015.3mb 84f 84f
1:20  -   -   -  13 18 mph 1015.4mb 84f 84f
1:10  -   -   -  13 18 mph 1015.4mb 84f 84f
1:00  -   -   -  13 16 mph 1015.5mb 84f 84f
12:50 4ft 9s 5s 13 18 mph 1015.5mb 84f 84f
12:40  -   -   -  16 18 mph 1015.6mb 84f 84f
12:30  -   -   -  16 18 mph 1015.6mb 84f 84f
12:20  -   -   -  16 20 mph 1015.8mb 84f 84f
12:10  -   -   -  16 18 mph 1015.9mb 84f 84f
12:00  -   -   -  16 18 mph 1015.9mb 84f 84f
sáb 06/25 11:50 3.5ft 8s 5s 16 20 mph 1015.9mb 84f 84f
11:40  -   -   -  16 20 mph 1016mb 84f 84f
11:30  -   -   -  16 18 mph 1016mb 84f 84f
11:20  -   -   -  16 20 mph 1016mb 84f 84f
11:10  -   -   -  16 20 mph 1016.1mb 84f 84f
11:00  -   -   -  16 18 mph 1016.1mb 84f 84f
10:50 3.5ft 8s 5s 16 18 mph 1016mb 84f 84f
10:40  -   -   -  16 18 mph 1016.1mb 85f 84f
10:30  -   -   -  16 18 mph 1016.3mb 85f 84f
10:20  -   -   -  13 18 mph 1016.1mb 84f 84f
10:10  -   -   -  16 18 mph 1016.1mb - -
10:00  -   -   -  13 18 mph 1016.1mb 85f 84f
9:50 3.5ft 8s 5s 11 13 mph 1016mb 85f 84f
9:40  -   -   -  13
mph
1016mb 84f 84f
9:30  -   -   -  13 16 mph 1015.9mb 85f 84f
9:20  -   -   -  13 16 mph 1016mb 85f 84f
9:10  -   -   -  13 16 mph 1016mb 85f 84f
9:00  -   -   -  13 16 mph 1015.9mb 85f 84f
8:50 3.5ft 9s 5s 13 16 mph 1016mb 85f 84f
8:40  -   -   -  11 13 mph 1015.9mb 85f 84f
8:30  -   -   -  11 13 mph 1015.8mb 85f 84f
8:20  -   -   -  11 13 mph 1015.6mb 85f 84f
8:10  -   -   -  11 13 mph 1015.6mb 85f 84f
8:00  -   -   -  11 13 mph 1015.5mb 85f 84f
7:50 3.5ft 8s 5s 11 13 mph 1015.5mb 85f 84f
7:40  -   -   -  13 16 mph 1015.5mb 85f 84f
7:30  -   -   -  13 16 mph 1015.4mb 85f 84f
7:20  -   -   -  13 16 mph 1015.4mb 85f 84f
7:10  -   -   -  13 16 mph 1015.4mb 85f 84f
7:00  -   -   -  11 13 mph 1015.4mb 85f 83f
5:30 3.5ft  -  5s 13 20 mph 1014.6mb 85f 83f
5:20  -   -   -  11 13 mph 1014.6mb - 83f
5:10  -   -   -  11 13 mph 1014.5mb 85f 83f
5:00  -   -   -  13 16 mph 1014.6mb 85f 83f
4:50 3.5ft 8s 5s 13 16 mph 1014.5mb 85f 83f
4:40  -   -   -  16 20 mph 1014.5mb 85f 83f
4:30  -   -   -  16 20 mph 1014.5mb 85f 83f
4:20  -   -   -  13 16 mph 1014.6mb 85f 83f
4:10  -   -   -  7 13 mph 1014.8mb 85f 80f
4:00  -   -   -  4 7 mph 1015mb 85f 79f
3:50 3ft 8s 5s 7 13 mph 1015mb 85f 79f
3:40  -   -   -  16 22 mph 1015.3mb 85f 80f
3:30  -   -   -  16 22 mph 1015.1mb 85f 82f
3:20  -   -   -  16 18 mph 1015.3mb 85f 83f
3:10  -   -   -  16 22 mph 1015mb 85f 84f
3:00  -   -   -  13 16 mph 1015.4mb 85f 85f
2:50 3.5ft 8s 5s 11
mph
1015.3mb 85f 85f
2:40  -   -   -  9 13 mph 1015.4mb 85f 84f
2:30  -   -   -  9 11 mph 1015.5mb 85f 83f
2:20  -   -   -  13 18 mph 1015.4mb 85f 83f
2:10  -   -   -  13 18 mph 1015.6mb 85f 84f
2:00  -   -   -  9 13 mph 1015.5mb 85f 84f
1:50 3ft 8s 5s 9 13 mph 1015.5mb 85f 84f
1:40  -   -   -  7 9 mph 1015.6mb 85f 84f
1:30  -   -   -  9 11 mph 1015.9mb 85f 84f
1:20  -   -   -  7 9 mph 1015.8mb 85f 84f
1:10  -   -   -  9 11 mph 1015.8mb 85f 84f
1:00  -   -   -  9 11 mph 1015.8mb 85f 84f
12:50 3ft 9s 5s 9 11 mph 1015.9mb 85f 84f
12:40  -   -   -  9 11 mph 1015.9mb 85f 84f
12:30  -   -   -  9 11 mph 1015.9mb 85f 84f
12:20  -   -   -  9 11 mph 1015.8mb 85f 84f
12:10  -   -   -  9 13 mph 1015.6mb 85f 84f
12:00  -   -   -  9 11 mph 1015.9mb 85f 84f
11:50 2.5ft 9s 5s 9 11 mph 1016mb 85f 84f
11:40  -   -   -  9 13 mph 1016mb 85f 84f
11:30  -   -   -  9 13 mph 1016mb 85f 84f
11:20  -   -   -  9 13 mph 1016mb 85f 84f
11:10  -   -   -  9 11 mph 1016mb 85f 84f
11:00  -   -   -  9 11 mph 1016mb 85f 84f
10:50 3.5ft 8s 6s 9 11 mph 1016.1mb 85f 84f
10:40  -   -   -  9 13 mph 1016mb 85f 84f
10:30  -   -   -  9 11 mph 1016mb 85f 84f
10:20  -   -   -  9 11 mph 1016mb 85f 84f
10:10  -   -   -  9 11 mph 1016mb 85f 84f
10:00  -   -   -  7 9 mph 1016mb 85f 84f
9:50 3ft 8s 5s 7 9 mph 1015.9mb - 84f
9:40  -   -   -  7 9 mph 1015.8mb 84f 84f
9:30  -   -   -  7 9 mph 1015.6mb 84f 84f
9:20  -   -   -  7 9 mph 1015.5mb 84f 84f
9:10  -   -   -  7 9 mph 1015.5mb 84f 84f
9:00  -   -   -  9 11 mph 1015.4mb 84f 84f
8:50 3ft 8s 5s 7 11 mph 1015.4mb 84f 84f
8:40  -   -   -  9 11 mph 1015.4mb 84f 84f
8:30  -   -   -  9 11 mph 1015.4mb 84f 84f
8:20  -   -   -  9 11 mph 1015.4mb 84f 84f
8:10  -   -   -  9 13 mph 1015.5mb 84f 84f
8:00  -   -   -  9 11 mph 1015.5mb 84f 84f
7:50 3ft 8s 5s 9 11 mph 1015.5mb 84f 84f
7:40  -   -   -  9 11 mph 1015.5mb 84f 84f
7:30  -   -   -  9 11 mph 1015.4mb 84f 84f
7:20  -   -   -  9 11 mph 1015.1mb 84f 84f
7:10  -   -   -  9 11 mph 1015mb 84f 83f
7:00  -   -   -  9 11 mph 1015mb 84f 83f
6:50 3ft 8s 5s 9 11 mph 1015mb 84f 83f
6:40  -   -   -  7 9 mph 1015mb 84f 83f
6:30  -   -   -  9
mph
1015mb 84f 83f
6:20  -   -   -  9
mph
1015mb 84f 83f
6:10  -   -   -  9 11 mph 1014.9mb 84f 83f
6:00  -   -   -  9 11 mph 1014.9mb 84f 83f
5:50 3.5ft 9s 5s 9 11 mph 1014.8mb 84f 83f
5:40 3.5ft  -  5s 7 9 mph 1014.6mb 84f 83f
5:30  -   -   -  9 11 mph 1014.8mb 84f 83f
5:20  -   -   -  7 9 mph 1014.8mb 84f 83f
5:10  -   -   -  7 9 mph 1014.8mb 84f 83f
5:00  -   -   -  7 9 mph 1014.5mb 84f 83f
4:50 3ft 7s 5s 9 11 mph 1014.5mb 84f 83f
4:40 3ft  -  5s 9
mph
1014.5mb 84f 83f
4:30  -   -   -  9 11 mph 1014.5mb 84f 83f
4:20  -   -   -  9 11 mph 1014.3mb 84f 83f
4:10  -   -   -  9 11 mph 1014.1mb 84f 83f
4:00  -   -   -  9 11 mph 1014mb 84f 83f
3:50 3.5ft 8s 5s 9 11 mph 1014.1mb 84f 83f
3:40  -   -   -  11
mph
1014.3mb 84f 83f
3:30  -   -   -  11 13 mph 1014.3mb 84f 83f
3:20  -   -   -  9 13 mph 1014.3mb 84f 83f
3:10  -   -   -  11 13 mph 1014.4mb 84f 84f
3:00  -   -   -  11 13 mph 1014.5mb 84f 84f
2:50 3ft 7s 5s 11 16 mph 1014.5mb 84f 84f
2:40  -   -   -  11 16 mph 1014.4mb 84f 84f
2:30  -   -   -  11 16 mph 1014.4mb 84f 84f
2:20  -   -   -  13 16 mph 1014.5mb 84f 84f
2:10  -   -   -  13 18 mph 1014.6mb 84f 84f
2:00  -   -   -  13 16 mph 1014.6mb 84f 84f
1:50 3ft 8s 5s 11 16 mph 1014.9mb 84f 84f
1:40 3ft  -  5s 13 16 mph 1014.9mb 84f 84f
1:30  -   -   -  13 16 mph 1014.9mb 84f 84f
1:20  -   -   -  13 16 mph 1014.8mb 84f 84f
1:10  -   -   -  11 16 mph 1014.8mb 84f 84f
1:00  -   -   -  9 11 mph 1014.8mb 84f 84f
12:50 3.5ft 8s 5s 11 13 mph 1015mb 84f 84f
12:40 3.5ft  -  5s 11 13 mph 1015mb 84f 84f
12:30  -   -   -  11 13 mph 1015mb 84f 84f
12:20  -   -   -  13 16 mph 1015mb 84f 84f
12:10  -   -   -  11 16 mph 1015.3mb 84f 84f
12:00  -   -   -  13 16 mph 1015.5mb 84f 84f
vie 06/24 11:50 3ft 8s 5s 13 16 mph 1015.4mb 84f 84f
11:40 3ft  -  5s 13 16 mph 1015.4mb 84f 84f
11:30  -   -   -  11 13 mph 1015.5mb 84f 84f
11:20  -   -   -  11 16 mph 1015.6mb 84f 84f
11:10  -   -   -  11 13 mph 1015.5mb 84f 84f
11:00  -   -   -  11 13 mph 1015.6mb 84f 84f
10:50 3.5ft 8s 5s 13 16 mph 1015.6mb 84f 84f
10:40  -   -   -  13 16 mph 1015.5mb 84f 84f
10:30  -   -   -  13 16 mph 1015.4mb 84f 84f
10:20  -   -   -  13 18 mph 1015.3mb 84f 84f
10:10  -   -   -  16 18 mph 1015.4mb 84f 84f
10:00  -   -   -  13 16 mph 1015.4mb 84f 84f
9:50 3ft 8s 5s 13 18 mph 1015.4mb 84f 84f
9:40  -   -   -  13 18 mph 1015.3mb 84f 84f
9:30  -   -   -  13 16 mph 1015.1mb 84f 84f
9:20  -   -   -  13 18 mph 1015.1mb 84f 84f
9:10  -   -   -  13 16 mph 1015mb 84f 84f
9:00  -   -   -  13 18 mph 1015mb 84f 84f
8:50 3ft 8s 5s 16 18 mph 1015mb 84f 84f
8:40  -   -   -  16 18 mph 1014.8mb 84f 84f
8:30  -   -   -  16 18 mph 1014.9mb 84f 84f
8:20  -   -   -  13 16 mph 1014.8mb 85f 84f
8:10  -   -   -  13 16 mph 1014.6mb 85f 84f
8:00  -   -   -  13 18 mph 1014.6mb 85f 84f
7:50 3.5ft 8s 5s 13 16 mph 1014.5mb 85f 84f
7:40 3.5ft  -  5s 13 18 mph 1014.5mb 85f 84f
7:30  -   -   -  13 16 mph 1014.5mb 85f 84f
7:20  -   -   -  13 16 mph 1014.4mb 85f 84f
7:10  -   -   -  13 18 mph 1014.4mb 85f 84f
7:00  -   -   -  13 16 mph 1014.3mb 85f 84f
6:50 3ft 8s 5s 13 16 mph 1014.3mb 85f 84f
6:40 3ft  -  5s 13 18 mph 1014.1mb 85f 84f
6:30  -   -   -  13 16 mph 1014.3mb - 84f
6:20  -   -   -  11 16 mph 1014mb 85f 84f
6:10  -   -   -  11 13 mph 1014.1mb 85f 84f
6:00  -   -   -  13 16 mph 1014.1mb 85f 85f
5:50 3ft 7s 5s 13 16 mph 1014.1mb 85f 84f
5:40  -   -   -  13 16 mph 1014.1mb 85f 84f
5:30  -   -   -  13 16 mph 1014.1mb 85f 85f
5:20  -   -   -  13 16 mph 1014.3mb 85f 84f
5:10  -   -   -  13 16 mph 1014.3mb 85f 84f
5:00  -   -   -  11 16 mph 1014.1mb 85f 85f
4:50 3ft 8s 5s 11 16 mph 1014.3mb 85f 85f
4:40 3ft  -  5s 13 16 mph 1014.4mb 85f 85f
4:30  -   -   -  13 16 mph 1014.4mb 85f 85f
4:20  -   -   -  11 13 mph 1014.5mb 85f 84f
4:10  -   -   -  11 13 mph 1014.5mb 85f 84f
4:00  -   -   -  11 13 mph 1014.5mb 85f 84f
3:50 3ft 8s 5s 11 13 mph 1014.8mb 85f 84f
3:40  -   -   -  11 13 mph 1014.8mb 85f 84f
3:30  -   -   -  11 13 mph 1014.9mb 85f 84f
3:20  -   -   -  11 13 mph 1014.9mb 85f 84f
3:10  -   -   -  11 13 mph 1015mb 85f 84f
3:00  -   -   -  13
mph
1015mb 85f 84f
2:50 3.5ft 8s 5s 11 16 mph 1015.1mb 85f 84f
2:40 3.5ft  -  5s 11 16 mph 1015mb 85f 84f
2:30  -   -   -  11 13 mph 1015.3mb 85f 84f
2:20  -   -   -  11 13 mph 1015.1mb 85f 84f
2:10  -   -   -  11 13 mph 1015.3mb 85f 84f
2:00  -   -   -  11 13 mph 1015.5mb 85f 84f
1:50 3.5ft 6s 5s 9 11 mph 1015.6mb 84f 84f
1:40 3.5ft  -  5s 11 13 mph 1015.8mb 84f 84f
1:30  -   -   -  13 16 mph 1015.9mb 84f 84f
1:20  -   -   -  13 16 mph 1016mb 84f 84f
1:10  -   -   -  13 16 mph 1016.1mb 84f 84f
1:00  -   -   -  11 16 mph 1016.4mb 85f 84f
12:50 3.5ft 8s 5s 11 16 mph 1016.3mb 85f 84f
12:40 3.5ft  -  5s 11 13 mph 1016.4mb 85f 84f
12:30  -   -   -  11 13 mph 1016.5mb 85f 84f
12:20  -   -   -  11 13 mph 1016.5mb 85f 84f
12:10  -   -   -  11
mph
1016.6mb 85f 84f
12:00  -   -   -  9 13 mph 1016.6mb 84f 84f
11:50 3.5ft 6s 5s 9 11 mph 1016.6mb 84f 84f
11:40 3.5ft  -  5s 11
mph
1016.6mb 84f 84f
11:30  -   -   -  11 13 mph 1016.6mb 84f 84f
11:20  -   -   -  11 13 mph 1016.8mb 84f 84f
11:10  -   -   -  11 13 mph 1017mb 84f 84f
11:00  -   -   -  11
mph
1016.9mb 84f 84f
10:50 3.5ft 7s 5s 9 11 mph 1017mb 84f 84f
10:40  -   -   -  9 11 mph 1017mb 84f 84f
10:30  -   -   -  9 11 mph 1017mb 84f 84f
10:20  -   -   -  9 13 mph 1017mb 84f 84f
10:10  -   -   -  11 13 mph 1017mb 84f 84f
10:00  -   -   -  11 13 mph 1017mb 84f 84f
9:50 3.5ft 7s 5s 11 13 mph 1017mb 84f 84f
9:40  -   -   -  11 13 mph 1017mb 84f 84f
9:30  -   -   -  11 13 mph 1016.9mb 84f 84f
9:20  -   -   -  11 13 mph 1016.9mb 84f 84f
9:10  -   -   -  11 13 mph 1016.9mb 84f 84f
9:00  -   -   -  11 16 mph 1017mb 84f 84f
8:50 3.5ft 9s 5s 11 13 mph 1016.8mb 84f 84f
8:40 3.5ft  -  5s 11 13 mph 1016.8mb 84f 84f
8:30  -   -   -  11 13 mph 1016.6mb 84f 84f
8:20  -   -   -  13 16 mph 1016.5mb 84f 84f
8:10  -   -   -  13 16 mph 1016.5mb 84f 84f
8:00  -   -   -  9 16 mph 1016.3mb 84f 84f
7:50 3.5ft 8s 5s 11 13 mph 1016.3mb 84f 84f
7:40  -   -   -  11 13 mph 1016.1mb 84f 84f
7:30  -   -   -  11 13 mph 1016.1mb 84f 84f
7:20  -   -   -  11 13 mph 1016.1mb 84f 84f
7:10  -   -   -  11 13 mph 1016.1mb 84f 84f
7:00  -   -   -  11 13 mph 1016mb 84f 84f
6:50 3.5ft 8s 5s 11 13 mph 1016mb 84f 84f
6:40 3.5ft  -  5s 11 13 mph 1015.9mb 84f 84f
6:30  -   -   -  9 11 mph 1015.9mb 84f 84f
6:20  -   -   -  11 13 mph 1015.6mb 84f 84f
6:10  -   -   -  11 13 mph 1015.6mb 84f 84f
6:00  -   -   -  11 13 mph 1015.5mb 84f 84f
5:50 3.5ft 8s 5s 9 13 mph 1015.4mb 84f 84f
5:40 3.5ft  -  5s 9 11 mph 1015.4mb 84f 84f
5:30  -   -   -  11 13 mph 1015.4mb 84f 84f
5:20  -   -   -  11 13 mph 1015.4mb 84f 84f
5:10  -   -   -  11 13 mph 1015.3mb 84f 84f
5:00  -   -   -  11 13 mph 1015.8mb - 84f
4:50 4ft 8s 6s 11 13 mph 1015.1mb 84f 84f
4:40 4ft  -  6s 11 13 mph 1015mb 84f 84f
4:30  -   -   -  11 13 mph 1015mb 84f 83f
4:20  -   -   -  11 13 mph 1014.8mb 84f 83f
4:10  -   -   -  11
mph
1014.5mb 84f 83f
4:00  -   -   -  11 13 mph 1014.6mb 84f 83f
3:50 3.5ft 8s 5s 11 13 mph 1014.6mb 84f 83f
3:40 3.5ft  -  5s 11 13 mph 1014.6mb 84f 83f
3:30  -   -   -  11
mph
1014.9mb 84f 83f
3:20  -   -   -  9 11 mph 1014.9mb 84f 83f
3:10  -   -   -  9 11 mph 1014.8mb 84f 84f
3:00  -   -   -  9 11 mph 1014.8mb 84f 83f
2:50 4ft 8s 5s 9 11 mph 1014.9mb 84f 84f
2:40  -   -   -  9 11 mph 1014.9mb 84f 84f
2:30  -   -   -  11 13 mph 1014.8mb 84f 84f
2:20  -   -   -  11 13 mph 1014.9mb 84f 84f
2:10  -   -   -  11 13 mph 1015mb 84f 84f
2:00  -   -   -  11 13 mph 1015.1mb 84f 84f
1:50 4ft 9s 5s 11 13 mph 1015.1mb 84f 84f
1:40 4ft  -  5s 11 13 mph 1015.3mb 84f 84f
1:30  -   -   -  11 13 mph 1015.3mb 84f 84f
1:20  -   -   -  11 13 mph 1015.1mb 84f 84f
1:10  -   -   -  11 16 mph 1015.4mb 84f 84f
1:00  -   -   -  11 13 mph 1015.5mb 84f 84f
12:50 4.5ft 7s 5s 11 13 mph 1015.5mb 84f 84f
12:40  -   -   -  11 13 mph 1015.6mb 84f 84f
12:30  -   -   -  11 13 mph 1015.8mb 84f 84f
12:20  -   -   -  11 16 mph 1016mb 84f 84f
12:10  -   -   -  13 16 mph 1016mb 84f 84f
12:00  -   -   -  11 13 mph 1016.3mb 84f 84f
jue 06/23 11:50 4.5ft 8s 5s 11 16 mph 1016.3mb 84f 84f
11:40 4.5ft  -  5s 13 16 mph 1016.5mb 84f 84f
11:30  -   -   -  13 16 mph 1016.8mb 84f 84f
11:20  -   -   -  13 16 mph 1016.9mb 84f 84f
11:10  -   -   -  13 18 mph 1017mb 84f 84f
11:00  -   -   -  13 18 mph 1017mb 84f 84f
10:50 4.5ft 8s 5s 13 16 mph 1017mb 84f 84f
10:40 4.5ft  -  5s 13 16 mph 1017.1mb 84f 84f
10:30  -   -   -  13 18 mph 1017mb 84f 84f
10:20  -   -   -  16 18 mph 1017mb 84f 84f
10:10  -   -   -  16 18 mph 1017mb 84f 84f
10:00  -   -   -  16 18 mph 1016.9mb 84f 84f
9:50 4.5ft 8s 5s 16 18 mph 1016.8mb 84f 84f
9:40  -   -   -  16 20 mph 1016.6mb 84f 84f
9:30  -   -   -  16 20 mph 1016.8mb 84f 84f
9:20  -   -   -  18 20 mph 1016.5mb 84f 84f
9:10  -   -   -  16 20 mph 1016.5mb 84f 84f
9:00  -   -   -  16 18 mph 1016.4mb 84f 84f
8:50 4.5ft 8s 5s 16 20 mph 1016.4mb 84f 84f
8:40 4.5ft  -  5s 16 18 mph 1016.3mb 84f 83f
8:30  -   -   -  16 18 mph 1016.3mb 84f 83f
8:20  -   -   -  16 20 mph 1016.1mb 84f 84f
8:10  -   -   -  18 22 mph 1016.1mb 84f 84f
8:00  -   -   -  18 20 mph 1016mb 84f 84f
7:50 4.5ft 8s 5s 18 22 mph 1015.9mb 84f 84f
7:40 4.5ft  -  5s 18 22 mph 1015.6mb 84f 84f
7:30  -   -   -  18 20 mph 1015.6mb 84f 84f
7:20  -   -   -  18 22 mph 1015.5mb 84f 85f
7:10  -   -   -  18 22 mph 1015.5mb 84f 84f
7:00  -   -   -  16 18 mph 1015.5mb 84f 84f
6:50 4.5ft 7s 5s 16 20 mph 1015.5mb 84f 84f
6:40 4.5ft  -  5s 16 18 mph 1015.5mb 84f 84f
6:30  -   -   -  16 18 mph 1015.6mb 84f 84f
6:20  -   -   -  13 18 mph 1015.6mb 84f 85f
6:10  -   -   -  16 18 mph 1015.6mb 84f 84f
6:00  -   -   -  16 18 mph 1015.8mb 84f 84f
5:50 4ft 8s 5s 13 18 mph 1015.6mb 84f 84f
5:40 4ft  -  5s 16 18 mph 1015.5mb 84f 84f
5:30  -   -   -  13 16 mph 1015.5mb 84f 84f
5:20  -   -   -  13 18 mph 1015.4mb 84f 84f
5:10  -   -   -  16 18 mph 1015.4mb 84f 84f
5:00  -   -   -  16 18 mph 1015.3mb 84f 84f
4:50 4.5ft 8s 5s 16 18 mph 1015.1mb 84f 84f
4:40 4.5ft  -  5s 13 18 mph 1015.1mb 84f 84f
4:30  -   -   -  16 18 mph 1015.3mb 84f 85f
4:20  -   -   -  16 18 mph 1015.3mb 84f 84f
4:10  -   -   -  16 20 mph 1015.3mb 84f 84f
4:00  -   -   -  16 18 mph 1015.4mb 84f 84f
3:50  -   -   -  16 18 mph 1015.4mb 84f 84f
3:40  -   -   -  16 18 mph 1015.5mb 84f 84f
3:30  -   -   -   -  mph 1015.5mb 84f -
3:20  -   -   -  16 18 mph 1015.5mb 84f 84f
3:10  -   -   -  16 18 mph 1015.5mb 84f 84f
3:00  -   -   -  16 18 mph 1015.6mb 84f 84f
2:50 4.5ft 9s 5s 16 18 mph 1015.8mb 84f 84f
2:40  -   -   -  16 18 mph 1016mb 84f 84f
2:30  -   -   -  16 18 mph 1016mb 84f 84f
2:20  -   -   -  16 20 mph 1016.1mb 84f 84f
2:10  -   -   -  16 20 mph 1016.1mb 84f 84f
2:00  -   -   -  16 20 mph 1016.4mb 84f 84f
1:50 5ft 8s 5s 16 20 mph 1016.5mb 84f 84f
1:40  -   -   -  16 18 mph 1016.5mb 84f 85f
1:30  -   -   -  16 18 mph 1016.5mb 84f 85f
1:20  -   -   -  16 20 mph 1016.6mb 84f 85f
1:10  -   -   -  16 20 mph 1016.5mb 84f 85f
1:00  -   -   -  16 20 mph 1016.5mb 84f 85f
12:50 5ft 8s 5s 16 20 mph 1016.6mb 84f 85f
12:40 5ft  -  5s 16 20 mph 1016.6mb 84f 85f
12:30  -   -   -  16 18 mph 1016.8mb 84f 85f
12:20  -   -   -  16 20 mph 1016.9mb 84f 85f
12:10  -   -   -  16 20 mph 1017mb 84f 85f
12:00  -   -   -  16 20 mph 1017mb 84f 85f
11:50 5ft 8s 6s 16 18 mph 1017mb 84f 85f
11:40  -   -   -  16 20 mph 1017mb 84f 85f
11:30  -   -   -  16 18 mph 1017.1mb 84f 84f
11:20  -   -   -  16 18 mph 1017.3mb 84f 84f
11:10  -   -   -  16 20 mph 1017.1mb 84f 84f
11:00  -   -   -  16 18 mph 1017.1mb 84f 85f
10:50 5ft 8s 5s 16 20 mph 1017.1mb 84f 84f
10:40  -   -   -  13 18 mph 1017.3mb 84f 84f
10:30  -   -   -  13 18 mph 1017.3mb 84f 84f
10:20  -   -   -  16 18 mph 1017.1mb 84f 84f
10:10  -   -   -  16 18 mph 1017mb 84f 84f
10:00  -   -   -  16 20 mph 1017mb 84f 84f
9:50 4.5ft 8s 5s 16 18 mph 1017mb 84f 84f
9:40  -   -   -  16 18 mph 1017mb 84f 84f
9:30  -   -   -  13 18 mph 1016.9mb 84f 84f
9:20  -   -   -  13 18 mph 1016.9mb 84f 84f
9:10  -   -   -  13 16 mph 1016.8mb 84f 84f
9:00  -   -   -  13 18 mph 1016.5mb 84f 84f
8:50 4.5ft 8s 5s 16 18 mph 1016.5mb 84f 84f
8:40  -   -   -  16 18 mph 1016.5mb 84f 84f
8:30  -   -   -  16 18 mph 1016.5mb 84f 84f
8:20  -   -   -  16 20 mph 1016.4mb 84f 83f
8:10  -   -   -  16 20 mph 1016.4mb 84f 83f
8:00  -   -   -  16 20 mph 1016.3mb 84f 83f
7:50 4.5ft 8s 5s 16 18 mph 1016.4mb 84f 83f
7:40  -   -   -  16 20 mph 1016.3mb 84f 83f
7:30  -   -   -  16 20 mph 1016.1mb 84f 83f
7:20  -   -   -  13 18 mph 1016mb 84f 83f
7:10  -   -   -  13 18 mph 1016mb 84f 83f
7:00  -   -   -  13 18 mph 1016.1mb 84f 83f
6:50 4.5ft 7s 5s 13 18 mph 1015.9mb 84f 83f
6:40  -   -   -  13 18 mph 1016mb 84f 83f
6:30  -   -   -  16 18 mph 1016mb 84f 83f
6:20  -   -   -  16 20 mph 1016mb 84f 83f
6:10  -   -   -  16 20 mph 1016mb 84f 83f
6:00  -   -   -  16 20 mph 1015.6mb 84f 83f
5:50 4.5ft 7s 5s 16 18 mph 1015.8mb 84f 83f
5:40  -   -   -  16 20 mph 1015.5mb 84f 83f
5:30  -   -   -  16 20 mph 1015.6mb 84f 83f
5:20  -   -   -  13 18 mph 1016mb 84f 83f
5:10  -   -   -  13 18 mph 1016mb 84f 83f
5:00  -   -   -  13 16 mph 1016mb 84f 83f
4:50 4.5ft 7s 6s 11 16 mph 1016mb 84f 83f
4:40 4.5ft  -  6s 11 16 mph 1016.1mb 84f 83f
4:30  -   -   -  13 16 mph 1016.1mb 84f 83f
4:20  -   -   -  13 16 mph 1016mb 84f 83f
4:10  -   -   -  13 16 mph 1016mb 84f 83f
4:00  -   -   -  13 16 mph 1016mb 84f 83f
3:50 4.5ft 7s 6s 11 16 mph 1016.1mb 84f 83f
3:40  -   -   -  11 16 mph 1016.1mb 84f 83f
3:30  -   -   -  13 16 mph 1016.1mb 84f 83f
3:20  -   -   -  11 16 mph 1016.1mb 84f 83f
3:10  -   -   -  13 16 mph 1016.1mb 84f 83f
3:00  -   -   -  11 16 mph 1016.3mb 84f 83f
2:50 5ft 8s 6s 11 13 mph 1016.1mb 84f 83f
2:40  -   -   -  11 16 mph 1016.3mb 84f 83f
2:30  -   -   -  11 13 mph 1016.4mb 84f 83f
2:20  -   -   -  11 16 mph 1016.4mb 84f 83f
2:10  -   -   -  11 16 mph 1016.4mb 84f 83f
2:00  -   -   -  13 16 mph 1016.1mb 84f 83f
1:50 5.5ft 7s 6s 13 18 mph 1016.1mb 84f 82f
1:40  -   -   -  11 13 mph 1016.4mb 84f 82f
1:30  -   -   -  11 13 mph 1016.4mb 84f 82f
1:20  -   -   -  11 16 mph 1016.5mb 84f 82f
1:10  -   -   -  11 16 mph 1016.5mb 84f 82f
1:00  -   -   -  13 16 mph 1016.5mb 84f 82f
12:50 5ft 7s 5s 13 16 mph 1016.5mb 84f 82f
12:40  -   -   -  13 16 mph 1016.5mb 84f 82f
12:30  -   -   -  13 16 mph 1016.6mb 84f 82f
12:20  -   -   -  13 16 mph 1016.8mb 84f 82f
12:10  -   -   -  13 16 mph 1016.8mb 84f 82f
12:00  -   -   -  13 16 mph 1016.8mb 84f 82f
mié 06/22 11:50 5ft 7s 5s 13 16 mph 1016.9mb 84f 82f
11:40  -   -   -  13 16 mph 1016.9mb 84f 82f
11:30  -   -   -  11 16 mph 1016.9mb 84f 82f
11:20  -   -   -  11 16 mph 1017mb 84f 83f
11:10  -   -   -  11 16 mph 1016.9mb 84f 83f
11:00  -   -   -  11 13 mph 1016.9mb 84f 83f
10:50 5ft 7s 5s 13 16 mph 1017mb 84f 83f
10:40  -   -   -  13 18 mph 1016.9mb 84f 83f
10:30  -   -   -  13 16 mph 1016.8mb 84f 83f
10:20  -   -   -  13 18 mph 1016.9mb 84f 83f
10:10  -   -   -  13 18 mph 1016.9mb 84f 83f
10:00  -   -   -  13 18 mph 1016.9mb 84f 83f
9:50 5.5ft 8s 5s 16 20 mph 1016.8mb 84f 83f
9:40  -   -   -  16 18 mph 1016.9mb 84f 83f
9:30  -   -   -  16 20 mph 1016.9mb 84f 82f
9:20  -   -   -  16 20 mph 1016.8mb 84f 82f
9:10  -   -   -  18 20 mph 1016.8mb 84f 82f
9:00  -   -   -  18 22 mph 1016.8mb 84f 83f
8:50 5.5ft 8s 5s 18 22 mph 1016.8mb 84f 83f
8:40 5.5ft  -  5s 18 22 mph 1016.8mb 84f 83f
8:30  -   -   -  18 22 mph 1016.8mb 84f 83f
8:20  -   -   -  20 25 mph 1016.5mb 84f 83f
8:10  -   -   -  22 27 mph 1016.5mb 84f 83f
8:00  -   -   -  20 25 mph 1016.3mb 84f 83f
7:50 5ft 8s 5s 18 22 mph 1016.3mb 84f 83f
7:40  -   -   -  20 25 mph 1016mb 84f 82f
7:30  -   -   -  18 22 mph 1016.1mb 84f 82f
7:20  -   -   -  20 25 mph 1016.1mb 84f 82f
7:10  -   -   -  18 25 mph 1016.1mb 84f 82f
7:00  -   -   -  18 22 mph 1016.1mb 84f 82f
6:50 5.5ft 9s 5s 20 25 mph 1016mb 84f 83f
6:40  -   -   -  20 25 mph 1016mb 84f 83f
6:30  -   -   -  18 25 mph 1016mb 84f 82f
6:20  -   -   -  18 22 mph 1015.9mb 84f 82f
6:10  -   -   -  18 20 mph 1015.9mb 84f 82f
6:00  -   -   -  18 20 mph 1015.9mb 84f 82f
5:50 5.5ft 8s 5s 18 22 mph 1015.9mb 84f 82f
5:40  -   -   -  18 22 mph 1015.9mb 84f 82f
5:30  -   -   -  18 22 mph 1015.9mb 84f 82f
5:20  -   -   -  18 22 mph 1015.9mb 84f 81f
5:10  -   -   -  16 20 mph 1016mb - 81f
5:00  -   -   -  18 22 mph 1016mb 84f 81f
4:50 6ft 8s 5s 18 22 mph 1016mb 84f 81f
4:40  -   -   -  16 20 mph 1016mb 84f 81f
4:30  -   -   -  18 22 mph 1016mb 84f 81f
4:20  -   -   -  18 25 mph 1016.1mb 84f 80f
4:10  -   -   -  18 22 mph 1016.1mb 84f 80f
4:00  -   -   -  18 22 mph 1016.1mb 84f 80f
3:50 7ft 9s 5s 20 22 mph 1016.4mb 84f 80f
3:40  -   -   -  20 25 mph 1016.5mb 84f 80f
3:30  -   -   -  22 27 mph 1016.4mb 84f 80f
3:20  -   -   -  22 29 mph 1016.1mb 84f 80f
3:10  -   -   -  25 29 mph 1016mb 84f 79f
3:00  -   -   -  25 29 mph 1016.1mb 84f 79f
2:50 5ft 7s 5s 22 29 mph 1016.1mb 84f 79f
2:40  -   -   -  22 29 mph 1016.4mb 84f 78f
2:30  -   -   -  22 29 mph 1016.5mb 84f 77f
2:20  -   -   -  27 36 mph 1016.5mb 84f 78f
2:10  -   -   -  29 38 mph 1016.5mb 84f 80f
2:00  -   -   -  22 34 mph 1016.4mb 84f 84f
1:50 4.5ft 9s 6s 20 25 mph 1016.5mb 84f 84f
1:40  -   -   -  18 22 mph 1016.5mb 84f 84f
1:30  -   -   -  16 20 mph 1016.5mb 84f 84f
1:20  -   -   -  13 18 mph 1016.5mb 84f 83f
1:10  -   -   -  11 16 mph 1016.3mb 84f 82f
1:00  -   -   -  13 20 mph 1016.3mb 84f 83f
12:50 4ft 10s 5s 16 18 mph 1016.3mb 84f 84f
12:40  -   -   -  13 18 mph 1016.4mb 84f 84f
12:30  -   -   -  16 18 mph 1016.5mb 84f 84f
12:20  -   -   -  16 18 mph 1016.5mb 85f 84f
12:10  -   -   -  16 18 mph 1016.5mb 85f 84f
12:00  -   -   -  16 18 mph 1016.5mb 85f 84f